createdAt,value
2022-11-17T00:00:07.796Z,669.77
2022-11-17T00:00:17.798Z,669.82
2022-11-17T00:00:27.801Z,669.88
2022-11-17T00:00:37.798Z,669.84
2022-11-17T00:00:47.800Z,669.86
2022-11-17T00:00:57.803Z,669.80
2022-11-17T00:01:07.802Z,669.88
2022-11-17T00:01:17.805Z,670.00
2022-11-17T00:01:27.805Z,669.98
2022-11-17T00:01:37.807Z,670.02
2022-11-17T00:01:47.807Z,670.04
2022-11-17T00:01:57.854Z,670.10
2022-11-17T00:02:07.868Z,670.10
2022-11-17T00:02:17.868Z,670.01
2022-11-17T00:02:27.895Z,670.07
2022-11-17T00:02:37.877Z,670.16
2022-11-17T00:02:47.923Z,670.19
2022-11-17T00:02:57.814Z,670.20
2022-11-17T00:03:07.812Z,670.16
2022-11-17T00:03:17.813Z,670.21
2022-11-17T00:03:27.818Z,670.26
2022-11-17T00:03:38.079Z,670.21
2022-11-17T00:03:47.843Z,670.20
2022-11-17T00:03:57.831Z,670.30
2022-11-17T00:04:07.818Z,670.43
2022-11-17T00:04:17.824Z,670.33
2022-11-17T00:04:27.803Z,670.43
2022-11-17T00:04:37.825Z,670.48
2022-11-17T00:04:47.827Z,670.57
2022-11-17T00:04:57.822Z,670.64
2022-11-17T00:05:07.826Z,670.66
2022-11-17T00:05:17.826Z,670.57
2022-11-17T00:05:27.829Z,670.70
2022-11-17T00:05:37.825Z,670.75
2022-11-17T00:05:47.826Z,670.67
2022-11-17T00:05:57.826Z,670.76
2022-11-17T00:06:07.828Z,670.86
2022-11-17T00:06:17.827Z,670.87
2022-11-17T00:06:27.832Z,670.87
2022-11-17T00:06:37.813Z,670.86
2022-11-17T00:06:47.830Z,670.87
2022-11-17T00:06:57.908Z,670.98
2022-11-17T00:07:07.891Z,670.96
2022-11-17T00:07:17.935Z,670.96
2022-11-17T00:07:27.891Z,670.97
2022-11-17T00:07:37.874Z,670.94
2022-11-17T00:07:47.841Z,670.92
2022-11-17T00:07:57.840Z,671.00
2022-11-17T00:08:07.840Z,671.02
2022-11-17T00:08:17.839Z,671.05
2022-11-17T00:08:27.843Z,671.06
2022-11-17T00:08:37.843Z,671.08
2022-11-17T00:08:47.874Z,671.04
2022-11-17T00:08:57.856Z,670.95
2022-11-17T00:09:07.827Z,671.02
2022-11-17T00:09:17.851Z,670.98
2022-11-17T00:09:27.847Z,671.06
2022-11-17T00:09:37.848Z,671.03
2022-11-17T00:09:47.850Z,671.01
2022-11-17T00:09:57.849Z,671.05
2022-11-17T00:10:07.851Z,671.05
2022-11-17T00:10:17.851Z,671.12
2022-11-17T00:10:27.853Z,671.09
2022-11-17T00:10:37.854Z,671.02
2022-11-17T00:10:47.851Z,670.93
2022-11-17T00:10:57.857Z,670.82
2022-11-17T00:11:07.858Z,670.89
2022-11-17T00:11:17.857Z,670.80
2022-11-17T00:11:27.856Z,670.84
2022-11-17T00:11:37.859Z,670.85
2022-11-17T00:11:47.867Z,670.90
2022-11-17T00:11:57.847Z,670.90
2022-11-17T00:12:07.862Z,670.99
2022-11-17T00:12:22.369Z,671.02
2022-11-17T00:12:32.597Z,671.11
2022-11-17T00:12:38.865Z,671.11
2022-11-17T00:12:47.865Z,671.12
2022-11-17T00:12:57.871Z,671.20
2022-11-17T00:13:07.866Z,671.26
2022-11-17T00:13:17.869Z,671.28
2022-11-17T00:13:27.868Z,671.31
2022-11-17T00:13:37.868Z,671.32
2022-11-17T00:13:47.873Z,671.39
2022-11-17T00:13:57.883Z,671.45
2022-11-17T00:14:07.869Z,671.49
2022-11-17T00:14:17.874Z,671.55
2022-11-17T00:14:27.875Z,671.66
2022-11-17T00:14:37.872Z,671.65
2022-11-17T00:14:47.874Z,671.75
2022-11-17T00:14:57.878Z,671.73
2022-11-17T00:15:07.878Z,671.76
2022-11-17T00:15:17.879Z,671.82
2022-11-17T00:15:27.881Z,671.80
2022-11-17T00:15:37.881Z,671.79
2022-11-17T00:15:47.885Z,671.83
2022-11-17T00:15:57.882Z,671.92
2022-11-17T00:16:07.888Z,671.92
2022-11-17T00:16:17.883Z,671.89
2022-11-17T00:16:27.885Z,671.87
2022-11-17T00:16:37.882Z,671.81
2022-11-17T00:16:47.886Z,671.69
2022-11-17T00:16:57.885Z,671.71
2022-11-17T00:17:07.887Z,671.71
2022-11-17T00:17:17.890Z,671.67
2022-11-17T00:17:27.891Z,671.61
2022-11-17T00:17:37.890Z,671.50
2022-11-17T00:17:47.892Z,671.42
2022-11-17T00:17:57.893Z,671.47
2022-11-17T00:18:07.893Z,671.44
2022-11-17T00:18:17.893Z,671.37
2022-11-17T00:18:27.899Z,671.30
2022-11-17T00:18:37.897Z,671.40
2022-11-17T00:18:47.898Z,671.36
2022-11-17T00:18:57.936Z,671.53
2022-11-17T00:19:07.901Z,671.60
2022-11-17T00:19:17.900Z,671.56
2022-11-17T00:19:27.896Z,671.58
2022-11-17T00:19:37.901Z,671.63
2022-11-17T00:19:47.901Z,671.60
2022-11-17T00:19:57.900Z,671.61
2022-11-17T00:20:07.904Z,671.65
2022-11-17T00:20:17.900Z,671.68
2022-11-17T00:20:27.907Z,671.82
2022-11-17T00:20:37.907Z,671.79
2022-11-17T00:20:47.904Z,671.78
2022-11-17T00:20:57.908Z,671.80
2022-11-17T00:21:07.905Z,671.85
2022-11-17T00:21:17.907Z,671.97
2022-11-17T00:21:27.906Z,671.94
2022-11-17T00:21:37.906Z,671.94
2022-11-17T00:21:47.907Z,672.07
2022-11-17T00:21:57.911Z,672.07
2022-11-17T00:22:07.909Z,672.09
2022-11-17T00:22:17.909Z,672.09
2022-11-17T00:22:27.912Z,672.11
2022-11-17T00:22:37.912Z,672.16
2022-11-17T00:22:47.912Z,672.25
2022-11-17T00:22:57.915Z,672.24
2022-11-17T00:23:07.915Z,672.27
2022-11-17T00:23:17.942Z,672.35
2022-11-17T00:23:27.919Z,672.32
2022-11-17T00:23:37.916Z,672.29
2022-11-17T00:23:48.310Z,672.45
2022-11-17T00:23:57.921Z,672.46
2022-11-17T00:24:07.924Z,672.53
2022-11-17T00:24:17.920Z,672.61
2022-11-17T00:24:28.014Z,672.57
2022-11-17T00:24:37.923Z,672.58
2022-11-17T00:24:47.926Z,672.59
2022-11-17T00:24:57.930Z,672.67
2022-11-17T00:25:07.926Z,672.67
2022-11-17T00:25:17.929Z,672.75
2022-11-17T00:25:27.937Z,672.71
2022-11-17T00:25:37.929Z,672.77
2022-11-17T00:25:47.928Z,672.75
2022-11-17T00:25:57.929Z,672.74
2022-11-17T00:26:07.933Z,672.76
2022-11-17T00:26:17.927Z,672.67
2022-11-17T00:26:27.934Z,672.61
2022-11-17T00:26:37.937Z,672.63
2022-11-17T00:26:47.937Z,672.60
2022-11-17T00:26:57.938Z,672.54
2022-11-17T00:27:07.938Z,672.49
2022-11-17T00:27:17.936Z,672.41
2022-11-17T00:27:27.939Z,672.35
2022-11-17T00:27:37.944Z,672.39
2022-11-17T00:27:47.941Z,672.36
2022-11-17T00:27:57.942Z,672.30
2022-11-17T00:28:07.943Z,672.26
2022-11-17T00:28:17.944Z,672.23
2022-11-17T00:28:27.946Z,672.19
2022-11-17T00:28:37.946Z,672.20
2022-11-17T00:28:47.951Z,672.14
2022-11-17T00:28:57.948Z,672.17
2022-11-17T00:29:07.950Z,672.16
2022-11-17T00:29:17.949Z,672.24
2022-11-17T00:29:27.949Z,672.25
2022-11-17T00:29:39.402Z,672.19
2022-11-17T00:29:47.957Z,672.24
2022-11-17T00:29:57.953Z,672.26
2022-11-17T00:30:07.955Z,672.27
2022-11-17T00:30:17.953Z,672.26
2022-11-17T00:30:27.955Z,672.36
2022-11-17T00:30:37.954Z,672.38
2022-11-17T00:30:47.956Z,672.41
2022-11-17T00:30:57.958Z,672.41
2022-11-17T00:31:07.964Z,672.49
2022-11-17T00:31:17.962Z,672.48
2022-11-17T00:31:27.960Z,672.63
2022-11-17T00:31:37.962Z,672.73
2022-11-17T00:31:47.967Z,672.81
2022-11-17T00:31:57.961Z,672.85
2022-11-17T00:32:07.963Z,672.91
2022-11-17T00:32:17.971Z,672.97
2022-11-17T00:32:27.965Z,673.03
2022-11-17T00:32:37.969Z,673.12
2022-11-17T00:32:48.078Z,673.20
2022-11-17T00:32:57.972Z,673.26
2022-11-17T00:33:07.968Z,673.37
2022-11-17T00:33:17.967Z,673.44
2022-11-17T00:33:27.967Z,673.46
2022-11-17T00:33:38.154Z,673.53
2022-11-17T00:33:47.972Z,673.65
2022-11-17T00:33:57.971Z,673.63
2022-11-17T00:34:07.973Z,673.65
2022-11-17T00:34:17.985Z,673.71
2022-11-17T00:34:27.974Z,673.87
2022-11-17T00:34:37.971Z,673.91
2022-11-17T00:34:47.974Z,673.88
2022-11-17T00:34:57.975Z,674.03
2022-11-17T00:35:07.976Z,674.04
2022-11-17T00:35:17.976Z,674.06
2022-11-17T00:35:27.975Z,674.09
2022-11-17T00:35:37.977Z,674.09
2022-11-17T00:35:47.984Z,674.12
2022-11-17T00:35:57.977Z,674.23
2022-11-17T00:36:07.980Z,674.19
2022-11-17T00:36:17.979Z,674.33
2022-11-17T00:36:27.980Z,674.34
2022-11-17T00:36:37.985Z,674.30
2022-11-17T00:36:47.990Z,674.25
2022-11-17T00:36:57.987Z,674.23
2022-11-17T00:37:07.983Z,674.25
2022-11-17T00:37:17.984Z,674.34
2022-11-17T00:37:27.992Z,674.33
2022-11-17T00:37:37.990Z,674.33
2022-11-17T00:37:47.987Z,674.34
2022-11-17T00:37:57.986Z,674.30
2022-11-17T00:38:07.987Z,674.38
2022-11-17T00:38:17.988Z,674.42
2022-11-17T00:38:27.995Z,674.44
2022-11-17T00:38:37.990Z,674.51
2022-11-17T00:38:47.992Z,674.52
2022-11-17T00:38:57.994Z,674.50
2022-11-17T00:39:08.000Z,674.52
2022-11-17T00:39:18.001Z,674.47
2022-11-17T00:39:27.995Z,674.46
2022-11-17T00:39:38.089Z,674.54
2022-11-17T00:39:47.995Z,674.51
2022-11-17T00:40:00.952Z,674.47
2022-11-17T00:40:08.001Z,674.52
2022-11-17T00:40:18.001Z,674.59
2022-11-17T00:40:27.999Z,674.57
2022-11-17T00:40:38.002Z,674.50
2022-11-17T00:40:48.007Z,674.55
2022-11-17T00:40:58.001Z,674.55
2022-11-17T00:41:08.003Z,674.62
2022-11-17T00:41:18.006Z,674.63
2022-11-17T00:41:28.005Z,674.76
2022-11-17T00:41:38.010Z,674.73
2022-11-17T00:41:48.005Z,674.73
2022-11-17T00:41:58.007Z,674.78
2022-11-17T00:42:08.007Z,674.87
2022-11-17T00:42:18.010Z,674.91
2022-11-17T00:42:28.011Z,674.94
2022-11-17T00:42:38.011Z,675.01
2022-11-17T00:42:48.018Z,675.02
2022-11-17T00:42:58.013Z,675.04
2022-11-17T00:43:08.014Z,675.08
2022-11-17T00:43:18.013Z,675.02
2022-11-17T00:43:28.023Z,674.98
2022-11-17T00:43:38.040Z,675.04
2022-11-17T00:43:48.022Z,675.01
2022-11-17T00:43:58.023Z,675.17
2022-11-17T00:44:08.022Z,675.25
2022-11-17T00:44:18.023Z,675.35
2022-11-17T00:44:28.028Z,675.38
2022-11-17T00:44:38.026Z,675.34
2022-11-17T00:44:48.026Z,675.35
2022-11-17T00:44:58.025Z,675.40
2022-11-17T00:45:08.028Z,675.34
2022-11-17T00:45:18.033Z,675.34
2022-11-17T00:45:28.028Z,675.42
2022-11-17T00:45:38.029Z,675.47
2022-11-17T00:45:48.033Z,675.44
2022-11-17T00:45:58.034Z,675.49
2022-11-17T00:46:08.031Z,675.46
2022-11-17T00:46:18.015Z,675.42
2022-11-17T00:46:28.033Z,675.40
2022-11-17T00:46:38.036Z,675.43
2022-11-17T00:46:48.051Z,675.30
2022-11-17T00:46:58.038Z,675.32
2022-11-17T00:47:08.043Z,675.25
2022-11-17T00:47:18.039Z,675.28
2022-11-17T00:47:28.040Z,675.25
2022-11-17T00:47:38.042Z,675.30
2022-11-17T00:47:48.045Z,675.29
2022-11-17T00:47:58.049Z,675.30
2022-11-17T00:48:08.046Z,675.26
2022-11-17T00:48:18.048Z,675.39
2022-11-17T00:48:28.053Z,675.42
2022-11-17T00:48:38.048Z,675.43
2022-11-17T00:48:48.049Z,675.41
2022-11-17T00:48:58.049Z,675.41
2022-11-17T00:49:08.053Z,675.41
2022-11-17T00:49:18.050Z,675.41
2022-11-17T00:49:28.055Z,675.44
2022-11-17T00:49:38.054Z,675.47
2022-11-17T00:49:48.065Z,675.48
2022-11-17T00:49:58.057Z,675.44
2022-11-17T00:50:08.070Z,675.43
2022-11-17T00:50:18.065Z,675.53
2022-11-17T00:50:28.060Z,675.52
2022-11-17T00:50:38.059Z,675.56
2022-11-17T00:50:48.061Z,675.52
2022-11-17T00:50:58.062Z,675.60
2022-11-17T00:51:08.061Z,675.58
2022-11-17T00:51:18.063Z,675.55
2022-11-17T00:51:28.067Z,675.59
2022-11-17T00:51:38.071Z,675.64
2022-11-17T00:51:48.066Z,675.73
2022-11-17T00:51:58.070Z,675.79
2022-11-17T00:52:08.064Z,675.79
2022-11-17T00:52:18.075Z,675.80
2022-11-17T00:52:28.069Z,675.78
2022-11-17T00:52:38.068Z,675.82
2022-11-17T00:52:48.071Z,675.93
2022-11-17T00:52:58.071Z,675.98
2022-11-17T00:53:08.074Z,676.09
2022-11-17T00:53:18.070Z,676.16
2022-11-17T00:53:28.072Z,676.19
2022-11-17T00:53:38.159Z,676.20
2022-11-17T00:53:48.075Z,676.25
2022-11-17T00:53:58.075Z,676.32
2022-11-17T00:54:08.080Z,676.33
2022-11-17T00:54:18.078Z,676.30
2022-11-17T00:54:28.077Z,676.30
2022-11-17T00:54:38.077Z,676.37
2022-11-17T00:54:48.081Z,676.36
2022-11-17T00:54:58.146Z,676.38
2022-11-17T00:55:08.145Z,676.44
2022-11-17T00:55:18.139Z,676.54
2022-11-17T00:55:28.111Z,676.58
2022-11-17T00:55:38.192Z,676.55
2022-11-17T00:55:48.137Z,676.47
2022-11-17T00:55:58.082Z,676.51
2022-11-17T00:56:08.084Z,676.46
2022-11-17T00:56:18.086Z,676.41
2022-11-17T00:56:28.086Z,676.31
2022-11-17T00:56:38.097Z,676.38
2022-11-17T00:56:48.091Z,676.46
2022-11-17T00:56:58.090Z,676.45
2022-11-17T00:57:08.092Z,676.39
2022-11-17T00:57:18.091Z,676.33
2022-11-17T00:57:28.094Z,676.29
2022-11-17T00:57:38.093Z,676.27
2022-11-17T00:57:48.098Z,676.28
2022-11-17T00:57:58.094Z,676.36
2022-11-17T00:58:08.101Z,676.26
2022-11-17T00:58:18.095Z,676.29
2022-11-17T00:58:28.097Z,676.56
2022-11-17T00:58:38.099Z,676.54
2022-11-17T00:58:48.083Z,676.44
2022-11-17T00:58:58.097Z,676.45
2022-11-17T00:59:08.104Z,676.43
2022-11-17T00:59:18.107Z,676.42
2022-11-17T00:59:28.102Z,676.54
2022-11-17T00:59:38.103Z,676.56
2022-11-17T00:59:48.107Z,676.64
2022-11-17T00:59:58.111Z,676.69
2022-11-17T01:00:08.108Z,676.67
2022-11-17T01:00:18.109Z,676.68
2022-11-17T01:00:28.110Z,676.75
2022-11-17T01:00:38.112Z,676.75
2022-11-17T01:00:48.114Z,676.75
2022-11-17T01:00:58.111Z,676.80
2022-11-17T01:01:08.147Z,676.76
2022-11-17T01:01:18.169Z,676.83
2022-11-17T01:01:28.152Z,676.75
2022-11-17T01:01:38.216Z,676.77
2022-11-17T01:01:48.165Z,676.74
2022-11-17T01:01:58.199Z,676.72
2022-11-17T01:02:08.118Z,676.74
2022-11-17T01:02:18.122Z,676.78
2022-11-17T01:02:28.121Z,676.76
2022-11-17T01:02:38.124Z,676.75
2022-11-17T01:02:48.124Z,676.74
2022-11-17T01:02:58.126Z,676.78
2022-11-17T01:03:08.124Z,676.78
2022-11-17T01:03:18.129Z,676.73
2022-11-17T01:03:28.127Z,676.72
2022-11-17T01:03:38.341Z,676.68
2022-11-17T01:03:48.130Z,676.71
2022-11-17T01:03:58.131Z,676.68
2022-11-17T01:04:08.118Z,676.68
2022-11-17T01:04:18.133Z,676.63
2022-11-17T01:04:28.134Z,676.60
2022-11-17T01:04:38.147Z,676.67
2022-11-17T01:04:48.178Z,676.62
2022-11-17T01:04:58.137Z,676.60
2022-11-17T01:05:08.122Z,676.67
2022-11-17T01:05:18.138Z,676.75
2022-11-17T01:05:32.842Z,676.82
2022-11-17T01:05:39.143Z,676.85
2022-11-17T01:05:48.144Z,676.89
2022-11-17T01:05:58.145Z,676.89
2022-11-17T01:06:08.148Z,676.92
2022-11-17T01:06:18.149Z,676.93
2022-11-17T01:06:28.149Z,676.94
2022-11-17T01:06:38.149Z,677.00
2022-11-17T01:06:48.157Z,676.97
2022-11-17T01:06:58.198Z,676.94
2022-11-17T01:07:08.170Z,677.03
2022-11-17T01:07:18.201Z,677.00
2022-11-17T01:07:28.210Z,677.04
2022-11-17T01:07:38.261Z,677.10
2022-11-17T01:07:48.154Z,677.09
2022-11-17T01:07:58.157Z,677.05
2022-11-17T01:08:08.157Z,677.12
2022-11-17T01:08:18.158Z,677.20
2022-11-17T01:08:28.163Z,677.27
2022-11-17T01:08:38.165Z,677.34
2022-11-17T01:08:48.163Z,677.32
2022-11-17T01:08:58.163Z,677.36
2022-11-17T01:09:08.167Z,677.37
2022-11-17T01:09:18.167Z,677.41
2022-11-17T01:09:28.169Z,677.39
2022-11-17T01:09:38.171Z,677.42
2022-11-17T01:09:48.175Z,677.56
2022-11-17T01:09:58.268Z,677.53
2022-11-17T01:10:08.176Z,677.58
2022-11-17T01:10:18.174Z,677.68
2022-11-17T01:10:28.177Z,677.72
2022-11-17T01:10:38.177Z,677.76
2022-11-17T01:10:48.181Z,677.69
2022-11-17T01:10:58.178Z,677.71
2022-11-17T01:11:08.178Z,677.70
2022-11-17T01:11:18.195Z,677.75
2022-11-17T01:11:28.180Z,677.58
2022-11-17T01:11:38.190Z,677.73
2022-11-17T01:11:48.184Z,677.71
2022-11-17T01:11:58.185Z,677.80
2022-11-17T01:12:08.184Z,677.94
2022-11-17T01:12:18.200Z,677.96
2022-11-17T01:12:28.186Z,677.97
2022-11-17T01:12:38.187Z,677.89
2022-11-17T01:12:48.188Z,678.01
2022-11-17T01:12:58.189Z,678.08
2022-11-17T01:13:08.189Z,678.19
2022-11-17T01:13:18.201Z,678.17
2022-11-17T01:13:28.192Z,678.16
2022-11-17T01:13:38.287Z,678.12
2022-11-17T01:13:48.200Z,678.26
2022-11-17T01:13:58.194Z,678.23
2022-11-17T01:14:08.205Z,678.27
2022-11-17T01:14:18.209Z,678.20
2022-11-17T01:14:28.219Z,678.24
2022-11-17T01:14:38.197Z,678.22
2022-11-17T01:14:48.200Z,678.34
2022-11-17T01:14:58.199Z,678.25
2022-11-17T01:15:08.201Z,678.25
2022-11-17T01:15:18.209Z,678.36
2022-11-17T01:15:28.201Z,678.34
2022-11-17T01:15:38.200Z,678.43
2022-11-17T01:15:48.203Z,678.41
2022-11-17T01:15:58.202Z,678.42
2022-11-17T01:16:08.204Z,678.49
2022-11-17T01:16:18.206Z,678.46
2022-11-17T01:16:28.208Z,678.39
2022-11-17T01:16:38.211Z,678.43
2022-11-17T01:16:48.215Z,678.48
2022-11-17T01:16:58.215Z,678.55
2022-11-17T01:17:08.213Z,678.67
2022-11-17T01:17:18.215Z,678.63
2022-11-17T01:17:28.215Z,678.64
2022-11-17T01:17:38.198Z,678.55
2022-11-17T01:17:48.221Z,678.52
2022-11-17T01:17:58.216Z,678.49
2022-11-17T01:18:08.216Z,678.53
2022-11-17T01:18:18.219Z,678.45
2022-11-17T01:18:28.221Z,678.39
2022-11-17T01:18:38.226Z,678.42
2022-11-17T01:18:48.223Z,678.36
2022-11-17T01:18:58.221Z,678.33
2022-11-17T01:19:08.264Z,678.35
2022-11-17T01:19:18.224Z,678.30
2022-11-17T01:19:28.223Z,678.21
2022-11-17T01:19:38.229Z,678.29
2022-11-17T01:19:48.226Z,678.25
2022-11-17T01:19:58.231Z,678.21
2022-11-17T01:20:08.226Z,678.28
2022-11-17T01:20:18.229Z,678.28
2022-11-17T01:20:28.228Z,678.25
2022-11-17T01:20:38.231Z,678.24
2022-11-17T01:20:48.232Z,678.32
2022-11-17T01:20:58.233Z,678.26
2022-11-17T01:21:08.232Z,678.27
2022-11-17T01:21:18.216Z,678.41
2022-11-17T01:21:28.246Z,678.44
2022-11-17T01:21:38.240Z,678.60
2022-11-17T01:21:48.239Z,678.57
2022-11-17T01:21:58.239Z,678.49
2022-11-17T01:22:08.242Z,678.51
2022-11-17T01:22:18.251Z,678.47
2022-11-17T01:22:28.244Z,678.63
2022-11-17T01:22:38.241Z,678.63
2022-11-17T01:22:48.243Z,678.66
2022-11-17T01:22:58.244Z,678.76
2022-11-17T01:23:08.247Z,678.80
2022-11-17T01:23:18.244Z,678.82
2022-11-17T01:23:28.247Z,678.78
2022-11-17T01:23:38.245Z,678.87
2022-11-17T01:23:48.248Z,678.74
2022-11-17T01:23:58.249Z,678.71
2022-11-17T01:24:08.251Z,678.71
2022-11-17T01:24:18.258Z,678.82
2022-11-17T01:24:28.251Z,678.90
2022-11-17T01:24:38.250Z,678.77
2022-11-17T01:24:48.253Z,678.79
2022-11-17T01:24:58.256Z,678.75
2022-11-17T01:25:08.257Z,678.78
2022-11-17T01:25:18.255Z,678.83
2022-11-17T01:25:28.258Z,678.80
2022-11-17T01:25:38.259Z,678.95
2022-11-17T01:25:48.259Z,678.96
2022-11-17T01:25:58.261Z,679.02
2022-11-17T01:26:08.260Z,678.98
2022-11-17T01:26:18.263Z,679.04
2022-11-17T01:26:28.268Z,678.89
2022-11-17T01:26:38.263Z,678.88
2022-11-17T01:26:48.264Z,678.93
2022-11-17T01:26:58.267Z,679.08
2022-11-17T01:27:08.267Z,679.08
2022-11-17T01:27:18.268Z,679.08
2022-11-17T01:27:28.270Z,679.01
2022-11-17T01:27:38.288Z,679.05
2022-11-17T01:27:48.273Z,679.17
2022-11-17T01:27:58.273Z,679.23
2022-11-17T01:28:08.273Z,679.27
2022-11-17T01:28:18.275Z,679.24
2022-11-17T01:28:28.275Z,679.29
2022-11-17T01:28:38.283Z,679.29
2022-11-17T01:28:48.278Z,679.32
2022-11-17T01:28:58.279Z,679.39
2022-11-17T01:29:08.291Z,679.36
2022-11-17T01:29:18.279Z,679.43
2022-11-17T01:29:28.281Z,679.48
2022-11-17T01:29:38.284Z,679.56
2022-11-17T01:29:48.281Z,679.66
2022-11-17T01:29:58.304Z,679.72
2022-11-17T01:30:08.290Z,679.68
2022-11-17T01:30:18.285Z,679.63
2022-11-17T01:30:28.290Z,679.61
2022-11-17T01:30:38.287Z,679.65
2022-11-17T01:30:48.291Z,679.77
2022-11-17T01:30:58.294Z,679.78
2022-11-17T01:31:08.294Z,679.77
2022-11-17T01:31:18.293Z,679.68
2022-11-17T01:31:28.295Z,679.69
2022-11-17T01:31:38.305Z,679.87
2022-11-17T01:31:48.298Z,679.99
2022-11-17T01:31:58.304Z,679.98
2022-11-17T01:32:08.300Z,679.94
2022-11-17T01:32:18.298Z,679.91
2022-11-17T01:32:28.302Z,680.07
2022-11-17T01:32:38.302Z,680.08
2022-11-17T01:32:48.306Z,680.13
2022-11-17T01:32:58.308Z,680.17
2022-11-17T01:33:08.305Z,680.15
2022-11-17T01:33:18.307Z,680.09
2022-11-17T01:33:28.308Z,680.06
2022-11-17T01:33:38.337Z,680.16
2022-11-17T01:33:48.316Z,680.09
2022-11-17T01:33:58.311Z,680.19
2022-11-17T01:34:08.349Z,680.18
2022-11-17T01:34:18.312Z,680.24
2022-11-17T01:34:28.313Z,680.21
2022-11-17T01:34:38.314Z,680.07
2022-11-17T01:34:48.322Z,680.26
2022-11-17T01:34:58.320Z,680.33
2022-11-17T01:35:08.318Z,680.34
2022-11-17T01:35:18.319Z,680.49
2022-11-17T01:35:28.320Z,680.54
2022-11-17T01:35:38.320Z,680.48
2022-11-17T01:35:48.304Z,680.24
2022-11-17T01:35:58.325Z,680.32
2022-11-17T01:36:08.324Z,680.50
2022-11-17T01:36:18.325Z,680.68
2022-11-17T01:36:28.324Z,680.61
2022-11-17T01:36:38.335Z,680.62
2022-11-17T01:36:48.327Z,680.60
2022-11-17T01:36:58.330Z,680.57
2022-11-17T01:37:08.327Z,680.59
2022-11-17T01:37:18.329Z,680.65
2022-11-17T01:37:28.331Z,680.77
2022-11-17T01:37:38.329Z,680.85
2022-11-17T01:37:48.331Z,680.74
2022-11-17T01:37:58.331Z,680.76
2022-11-17T01:38:08.332Z,680.71
2022-11-17T01:38:18.333Z,680.86
2022-11-17T01:38:28.333Z,680.89
2022-11-17T01:38:38.335Z,680.94
2022-11-17T01:38:48.335Z,680.90
2022-11-17T01:38:58.336Z,680.86
2022-11-17T01:39:08.350Z,680.97
2022-11-17T01:39:18.336Z,680.96
2022-11-17T01:39:28.338Z,680.95
2022-11-17T01:39:38.339Z,681.03
2022-11-17T01:39:48.341Z,681.03
2022-11-17T01:39:58.342Z,680.99
2022-11-17T01:40:08.344Z,681.05
2022-11-17T01:40:18.342Z,681.13
2022-11-17T01:40:28.345Z,681.28
2022-11-17T01:40:38.345Z,681.30
2022-11-17T01:40:48.346Z,681.26
2022-11-17T01:40:58.347Z,681.25
2022-11-17T01:41:08.348Z,681.35
2022-11-17T01:41:18.350Z,681.21
2022-11-17T01:41:28.351Z,681.32
2022-11-17T01:41:38.350Z,681.40
2022-11-17T01:41:48.352Z,681.53
2022-11-17T01:41:58.372Z,681.70
2022-11-17T01:42:08.355Z,681.76
2022-11-17T01:42:18.359Z,681.67
2022-11-17T01:42:28.363Z,681.63
2022-11-17T01:42:38.360Z,681.74
2022-11-17T01:42:48.358Z,681.64
2022-11-17T01:42:58.356Z,681.54
2022-11-17T01:43:08.361Z,681.55
2022-11-17T01:43:18.362Z,681.73
2022-11-17T01:43:28.363Z,681.92
2022-11-17T01:43:38.361Z,681.89
2022-11-17T01:43:48.362Z,681.99
2022-11-17T01:43:58.368Z,681.99
2022-11-17T01:44:08.379Z,681.95
2022-11-17T01:44:18.366Z,681.96
2022-11-17T01:44:28.369Z,681.90
2022-11-17T01:44:38.367Z,682.01
2022-11-17T01:44:48.374Z,681.94
2022-11-17T01:44:58.369Z,681.94
2022-11-17T01:45:08.371Z,682.00
2022-11-17T01:45:18.375Z,682.08
2022-11-17T01:45:28.371Z,682.11
2022-11-17T01:45:38.374Z,682.16
2022-11-17T01:45:48.381Z,682.18
2022-11-17T01:45:58.375Z,682.25
2022-11-17T01:46:08.383Z,682.01
2022-11-17T01:46:18.375Z,682.17
2022-11-17T01:46:28.377Z,682.30
2022-11-17T01:46:38.376Z,682.31
2022-11-17T01:46:48.380Z,682.45
2022-11-17T01:47:01.079Z,682.34
2022-11-17T01:47:08.383Z,682.09
2022-11-17T01:47:18.382Z,682.26
2022-11-17T01:47:28.381Z,682.49
2022-11-17T01:47:38.384Z,682.47
2022-11-17T01:47:48.385Z,682.43
2022-11-17T01:47:58.387Z,682.67
2022-11-17T01:48:08.384Z,682.66
2022-11-17T01:48:18.385Z,682.74
2022-11-17T01:48:28.389Z,682.79
2022-11-17T01:48:38.389Z,682.81
2022-11-17T01:48:48.390Z,682.77
2022-11-17T01:48:58.388Z,682.81
2022-11-17T01:49:08.405Z,682.94
2022-11-17T01:49:18.393Z,682.91
2022-11-17T01:49:28.389Z,682.94
2022-11-17T01:49:38.394Z,682.93
2022-11-17T01:49:48.395Z,682.91
2022-11-17T01:49:58.397Z,682.94
2022-11-17T01:50:08.396Z,682.93
2022-11-17T01:50:18.397Z,682.74
2022-11-17T01:50:28.400Z,682.68
2022-11-17T01:50:38.398Z,682.80
2022-11-17T01:50:48.404Z,683.01
2022-11-17T01:50:58.399Z,682.99
2022-11-17T01:51:08.402Z,682.94
2022-11-17T01:51:18.408Z,682.75
2022-11-17T01:51:28.402Z,682.73
2022-11-17T01:51:38.405Z,682.88
2022-11-17T01:51:48.404Z,682.81
2022-11-17T01:51:58.404Z,682.70
2022-11-17T01:52:08.406Z,682.91
2022-11-17T01:52:18.406Z,683.17
2022-11-17T01:52:28.405Z,683.11
2022-11-17T01:52:38.411Z,683.05
2022-11-17T01:52:48.410Z,683.01
2022-11-17T01:52:58.408Z,683.17
2022-11-17T01:53:08.420Z,683.15
2022-11-17T01:53:18.411Z,682.92
2022-11-17T01:53:28.415Z,682.84
2022-11-17T01:53:38.467Z,682.94
2022-11-17T01:53:48.419Z,683.08
2022-11-17T01:53:58.414Z,683.14
2022-11-17T01:54:08.427Z,683.06
2022-11-17T01:54:18.417Z,683.03
2022-11-17T01:54:28.418Z,683.18
2022-11-17T01:54:38.422Z,683.06
2022-11-17T01:54:48.419Z,683.06
2022-11-17T01:54:58.420Z,683.21
2022-11-17T01:55:08.423Z,683.10
2022-11-17T01:55:18.426Z,683.06
2022-11-17T01:55:28.421Z,682.80
2022-11-17T01:55:38.432Z,683.01
2022-11-17T01:55:48.424Z,683.13
2022-11-17T01:55:58.425Z,683.08
2022-11-17T01:56:08.426Z,683.05
2022-11-17T01:56:18.426Z,682.96
2022-11-17T01:56:28.427Z,682.90
2022-11-17T01:56:38.430Z,683.15
2022-11-17T01:56:48.429Z,683.22
2022-11-17T01:56:58.432Z,683.19
2022-11-17T01:57:08.431Z,683.27
2022-11-17T01:57:18.431Z,683.22
2022-11-17T01:57:28.432Z,683.27
2022-11-17T01:57:38.434Z,683.28
2022-11-17T01:57:48.435Z,683.40
2022-11-17T01:57:58.434Z,683.30
2022-11-17T01:58:08.417Z,683.13
2022-11-17T01:58:18.434Z,683.18
2022-11-17T01:58:28.438Z,683.25
2022-11-17T01:58:38.440Z,683.22
2022-11-17T01:58:48.438Z,683.43
2022-11-17T01:58:58.439Z,683.38
2022-11-17T01:59:08.483Z,683.39
2022-11-17T01:59:18.444Z,683.36
2022-11-17T01:59:28.441Z,683.44
2022-11-17T01:59:38.446Z,683.45
2022-11-17T01:59:48.443Z,683.45
2022-11-17T01:59:58.445Z,683.63
2022-11-17T02:00:08.455Z,683.59
2022-11-17T02:00:18.447Z,683.57
2022-11-17T02:00:28.444Z,683.49
2022-11-17T02:00:38.448Z,683.62
2022-11-17T02:00:48.447Z,683.77
2022-11-17T02:00:58.450Z,683.73
2022-11-17T02:01:08.536Z,683.73
2022-11-17T02:01:18.502Z,683.74
2022-11-17T02:01:28.479Z,683.71
2022-11-17T02:01:38.559Z,683.74
2022-11-17T02:01:48.499Z,683.79
2022-11-17T02:01:58.512Z,683.73
2022-11-17T02:02:08.451Z,683.99
2022-11-17T02:02:18.453Z,683.89
2022-11-17T02:02:28.455Z,683.87
2022-11-17T02:02:38.456Z,683.84
2022-11-17T02:02:48.457Z,683.91
2022-11-17T02:02:58.462Z,683.88
2022-11-17T02:03:08.460Z,684.10
2022-11-17T02:03:18.461Z,684.27
2022-11-17T02:03:28.463Z,684.30
2022-11-17T02:03:38.527Z,684.31
2022-11-17T02:03:48.461Z,684.42
2022-11-17T02:03:58.465Z,684.28
2022-11-17T02:04:08.467Z,684.22
2022-11-17T02:04:18.469Z,684.15
2022-11-17T02:04:28.466Z,684.23
2022-11-17T02:04:38.465Z,684.21
2022-11-17T02:04:48.468Z,684.38